sensor_id;sensor_type;location;lat;lon;timestamp;pressure;altitude;pressure_sealevel;temperature
67829;BMP280;54626;45.436;10.942;2023-05-07T00:01:26;100618.31;;;18.06
67829;BMP280;54626;45.436;10.942;2023-05-07T00:03:52;100627.59;;;18.18
67829;BMP280;54626;45.436;10.942;2023-05-07T00:06:19;100635.22;;;18.17
67829;BMP280;54626;45.436;10.942;2023-05-07T00:08:49;100632.59;;;18.10
67829;BMP280;54626;45.436;10.942;2023-05-07T00:11:17;100629.97;;;18.12
67829;BMP280;54626;45.436;10.942;2023-05-07T00:13:44;100629.50;;;18.06
67829;BMP280;54626;45.436;10.942;2023-05-07T00:16:11;100627.56;;;18.08
67829;BMP280;54626;45.436;10.942;2023-05-07T00:18:37;100623.91;;;18.15
67829;BMP280;54626;45.436;10.942;2023-05-07T00:21:04;100610.47;;;18.23
67829;BMP280;54626;45.436;10.942;2023-05-07T00:23:30;100618.44;;;18.26
67829;BMP280;54626;45.436;10.942;2023-05-07T00:25:57;100623.16;;;18.24
67829;BMP280;54626;45.436;10.942;2023-05-07T00:28:23;100621.53;;;18.30
67829;BMP280;54626;45.436;10.942;2023-05-07T00:30:50;100625.69;;;18.29
67829;BMP280;54626;45.436;10.942;2023-05-07T00:33:16;100619.16;;;18.27
67829;BMP280;54626;45.436;10.942;2023-05-07T00:35:42;100615.50;;;18.24
67829;BMP280;54626;45.436;10.942;2023-05-07T00:38:09;100617.56;;;18.24
67829;BMP280;54626;45.436;10.942;2023-05-07T00:40:38;100623.00;;;18.22
67829;BMP280;54626;45.436;10.942;2023-05-07T00:43:05;100625.06;;;18.21
67829;BMP280;54626;45.436;10.942;2023-05-07T00:45:33;100622.88;;;18.20
67829;BMP280;54626;45.436;10.942;2023-05-07T00:48:01;100619.19;;;18.18
67829;BMP280;54626;45.436;10.942;2023-05-07T00:50:28;100617.56;;;18.15
67829;BMP280;54626;45.436;10.942;2023-05-07T00:52:56;100619.47;;;18.12
67829;BMP280;54626;45.436;10.942;2023-05-07T00:55:23;100622.72;;;18.09
67829;BMP280;54626;45.436;10.942;2023-05-07T00:57:51;100608.44;;;18.05
67829;BMP280;54626;45.436;10.942;2023-05-07T01:00:17;100614.59;;;18.03
67829;BMP280;54626;45.436;10.942;2023-05-07T01:02:47;100617.56;;;18.05
67829;BMP280;54626;45.436;10.942;2023-05-07T01:05:17;100616.09;;;18.04
67829;BMP280;54626;45.436;10.942;2023-05-07T01:07:46;100616.84;;;18.05
67829;BMP280;54626;45.436;10.942;2023-05-07T01:10:13;100614.59;;;18.03
67829;BMP280;54626;45.436;10.942;2023-05-07T01:12:41;100615.06;;;18.00
67829;BMP280;54626;45.436;10.942;2023-05-07T01:15:09;100611.97;;;17.96
67829;BMP280;54626;45.436;10.942;2023-05-07T01:17:37;100614.47;;;17.92
67829;BMP280;54626;45.436;10.942;2023-05-07T01:20:05;100614.03;;;17.86
67829;BMP280;54626;45.436;10.942;2023-05-07T01:22:34;100608.88;;;17.82
67829;BMP280;54626;45.436;10.942;2023-05-07T01:25:06;100610.03;;;17.79
67829;BMP280;54626;45.436;10.942;2023-05-07T01:27:33;100600.91;;;17.79
67829;BMP280;54626;45.436;10.942;2023-05-07T01:30:01;100604.13;;;17.75
67829;BMP280;54626;45.436;10.942;2023-05-07T01:32:40;100604.13;;;17.75
67829;BMP280;54626;45.436;10.942;2023-05-07T01:35:11;100596.91;;;17.72
67829;BMP280;54626;45.436;10.942;2023-05-07T01:37:39;100595.44;;;17.71
67829;BMP280;54626;45.436;10.942;2023-05-07T01:40:07;100599.41;;;17.68
67829;BMP280;54626;45.436;10.942;2023-05-07T01:42:34;100597.94;;;17.67
67829;BMP280;54626;45.436;10.942;2023-05-07T01:45:01;100594.69;;;17.61
67829;BMP280;54626;45.436;10.942;2023-05-07T01:47:29;100601.47;;;17.58
67829;BMP280;54626;45.436;10.942;2023-05-07T01:49:58;100603.22;;;17.54
67829;BMP280;54626;45.436;10.942;2023-05-07T01:52:25;100600.88;;;17.51
67829;BMP280;54626;45.436;10.942;2023-05-07T01:54:51;100603.50;;;17.49
67829;BMP280;54626;45.436;10.942;2023-05-07T01:57:18;100605.41;;;17.46
67829;BMP280;54626;45.436;10.942;2023-05-07T01:59:45;100604.38;;;17.51
67829;BMP280;54626;45.436;10.942;2023-05-07T02:02:11;100605.16;;;17.52
67829;BMP280;54626;45.436;10.942;2023-05-07T02:04:38;100602.19;;;17.50
67829;BMP280;54626;45.436;10.942;2023-05-07T02:07:05;100606.47;;;17.51
67829;BMP280;54626;45.436;10.942;2023-05-07T02:09:32;100598.38;;;17.55
67829;BMP280;54626;45.436;10.942;2023-05-07T02:11:58;100592.19;;;17.56
67829;BMP280;54626;45.436;10.942;2023-05-07T02:14:25;100599.22;;;17.57
67829;BMP280;54626;45.436;10.942;2023-05-07T02:16:52;100595.69;;;17.57
67829;BMP280;54626;45.436;10.942;2023-05-07T02:19:19;100607.31;;;17.53
67829;BMP280;54626;45.436;10.942;2023-05-07T02:21:47;100599.56;;;17.52
67829;BMP280;54626;45.436;10.942;2023-05-07T02:24:13;100597.31;;;17.50
67829;BMP280;54626;45.436;10.942;2023-05-07T02:26:40;100598.06;;;17.51
67829;BMP280;54626;45.436;10.942;2023-05-07T02:29:10;100601.88;;;17.46
67829;BMP280;54626;45.436;10.942;2023-05-07T02:31:37;100600.84;;;17.41
67829;BMP280;54626;45.436;10.942;2023-05-07T02:34:03;100594.03;;;17.35
67829;BMP280;54626;45.436;10.942;2023-05-07T02:36:30;100593.56;;;17.29
67829;BMP280;54626;45.436;10.942;2023-05-07T02:39:04;100596.38;;;17.29
67829;BMP280;54626;45.436;10.942;2023-05-07T02:41:31;100590.78;;;17.29
67829;BMP280;54626;45.436;10.942;2023-05-07T02:44:04;100593.16;;;17.32
67829;BMP280;54626;45.436;10.942;2023-05-07T02:46:30;100600.34;;;17.26
67829;BMP280;54626;45.436;10.942;2023-05-07T02:48:58;100595.59;;;17.19
67829;BMP280;54626;45.436;10.942;2023-05-07T02:51:26;100600.13;;;17.14
67829;BMP280;54626;45.436;10.942;2023-05-07T02:53:53;100602.63;;;17.10
67829;BMP280;54626;45.436;10.942;2023-05-07T02:56:25;100601.00;;;17.07
67829;BMP280;54626;45.436;10.942;2023-05-07T02:58:51;100610.09;;;16.98
67829;BMP280;54626;45.436;10.942;2023-05-07T03:01:18;100602.53;;;16.92
67829;BMP280;54626;45.436;10.942;2023-05-07T03:03:48;100606.34;;;16.87
67829;BMP280;54626;45.436;10.942;2023-05-07T03:06:14;100604.31;;;16.87
67829;BMP280;54626;45.436;10.942;2023-05-07T03:08:41;100603.84;;;16.91
67829;BMP280;54626;45.436;10.942;2023-05-07T03:11:08;100601.50;;;16.87
67829;BMP280;54626;45.436;10.942;2023-05-07T03:13:34;100602.66;;;16.84
67829;BMP280;54626;45.436;10.942;2023-05-07T03:16:01;100607.03;;;16.78
67829;BMP280;54626;45.436;10.942;2023-05-07T03:18:28;100596.28;;;16.74
67829;BMP280;54626;45.436;10.942;2023-05-07T03:20:54;100599.00;;;16.65
67829;BMP280;54626;45.436;10.942;2023-05-07T03:23:21;100599.13;;;16.57
67829;BMP280;54626;45.436;10.942;2023-05-07T03:25:50;100598.06;;;16.53
67829;BMP280;54626;45.436;10.942;2023-05-07T03:28:18;100594.56;;;16.52
67829;BMP280;54626;45.436;10.942;2023-05-07T03:30:44;100592.47;;;16.53
67829;BMP280;54626;45.436;10.942;2023-05-07T03:33:11;100592.06;;;16.56
67829;BMP280;54626;45.436;10.942;2023-05-07T03:35:37;100598.38;;;16.57
67829;BMP280;54626;45.436;10.942;2023-05-07T03:38:04;100590.84;;;16.50
67829;BMP280;54626;45.436;10.942;2023-05-07T03:40:33;100595.69;;;16.49
67829;BMP280;54626;45.436;10.942;2023-05-07T03:43:00;100602.00;;;16.50
67829;BMP280;54626;45.436;10.942;2023-05-07T03:45:27;100603.66;;;16.53
67829;BMP280;54626;45.436;10.942;2023-05-07T03:47:53;100598.81;;;16.53
67829;BMP280;54626;45.436;10.942;2023-05-07T03:50:23;100602.00;;;16.50
67829;BMP280;54626;45.436;10.942;2023-05-07T03:52:50;100597.03;;;16.48
67829;BMP280;54626;45.436;10.942;2023-05-07T03:55:16;100594.47;;;16.43
67829;BMP280;54626;45.436;10.942;2023-05-07T03:57:43;100598.16;;;16.45
67829;BMP280;54626;45.436;10.942;2023-05-07T04:00:12;100591.69;;;16.43
67829;BMP280;54626;45.436;10.942;2023-05-07T04:02:39;100591.09;;;16.44
67829;BMP280;54626;45.436;10.942;2023-05-07T04:05:06;100589.97;;;16.47
67829;BMP280;54626;45.436;10.942;2023-05-07T04:07:33;100590.69;;;16.48
67829;BMP280;54626;45.436;10.942;2023-05-07T04:09:59;100598.06;;;16.53
67829;BMP280;54626;45.436;10.942;2023-05-07T04:12:26;100601.94;;;16.57
67829;BMP280;54626;45.436;10.942;2023-05-07T04:14:52;100605.75;;;16.62
67829;BMP280;54626;45.436;10.942;2023-05-07T04:17:18;100607.50;;;16.57
67829;BMP280;54626;45.436;10.942;2023-05-07T04:19:45;100601.94;;;16.57
67829;BMP280;54626;45.436;10.942;2023-05-07T04:22:13;100606.34;;;16.60
67829;BMP280;54626;45.436;10.942;2023-05-07T04:24:39;100615.94;;;16.67
67829;BMP280;54626;45.436;10.942;2023-05-07T04:27:08;100610.78;;;16.63
67829;BMP280;54626;45.436;10.942;2023-05-07T04:29:35;100616.38;;;16.63
67829;BMP280;54626;45.436;10.942;2023-05-07T04:32:02;100618.31;;;16.70
67829;BMP280;54626;45.436;10.942;2023-05-07T04:34:29;100608.94;;;16.75
67829;BMP280;54626;45.436;10.942;2023-05-07T04:36:58;100608.81;;;16.83
67829;BMP280;54626;45.436;10.942;2023-05-07T04:39:25;100608.13;;;16.92
67829;BMP280;54626;45.436;10.942;2023-05-07T04:41:51;100620.38;;;16.96
67829;BMP280;54626;45.436;10.942;2023-05-07T04:44:19;100617.06;;;17.07
67829;BMP280;54626;45.436;10.942;2023-05-07T04:46:46;100620.56;;;17.07
67829;BMP280;54626;45.436;10.942;2023-05-07T04:49:12;100628.38;;;17.09
67829;BMP280;54626;45.436;10.942;2023-05-07T04:51:39;100630.16;;;17.14
67829;BMP280;54626;45.436;10.942;2023-05-07T04:54:09;100627.56;;;17.25
67829;BMP280;54626;45.436;10.942;2023-05-07T04:56:36;100625.22;;;17.31
67829;BMP280;54626;45.436;10.942;2023-05-07T04:59:02;100627.00;;;17.36
67829;BMP280;54626;45.436;10.942;2023-05-07T05:01:29;100632.78;;;17.48
67829;BMP280;54626;45.436;10.942;2023-05-07T05:03:55;100635.44;;;17.55
67829;BMP280;54626;45.436;10.942;2023-05-07T05:06:22;100630.28;;;17.61
67829;BMP280;54626;45.436;10.942;2023-05-07T05:08:55;100638.13;;;17.62
67829;BMP280;54626;45.436;10.942;2023-05-07T05:11:22;100649.63;;;17.66
67829;BMP280;54626;45.436;10.942;2023-05-07T05:13:48;100647.75;;;17.78
67829;BMP280;54626;45.436;10.942;2023-05-07T05:16:15;100654.84;;;17.89
67829;BMP280;54626;45.436;10.942;2023-05-07T05:18:42;100661.75;;;17.97
67829;BMP280;54626;45.436;10.942;2023-05-07T05:21:12;100667.94;;;18.05
67829;BMP280;54626;45.436;10.942;2023-05-07T05:23:39;100668.69;;;18.15
67829;BMP280;54626;45.436;10.942;2023-05-07T05:26:05;100666.19;;;18.19
67829;BMP280;54626;45.436;10.942;2023-05-07T05:28:31;100673.13;;;18.09
67829;BMP280;54626;45.436;10.942;2023-05-07T05:30:59;100674.44;;;18.26
67829;BMP280;54626;45.436;10.942;2023-05-07T05:33:25;100671.34;;;18.41
67829;BMP280;54626;45.436;10.942;2023-05-07T05:35:54;100673.69;;;18.54
67829;BMP280;54626;45.436;10.942;2023-05-07T05:38:21;100667.03;;;18.69
67829;BMP280;54626;45.436;10.942;2023-05-07T05:40:47;100666.00;;;18.74
67829;BMP280;54626;45.436;10.942;2023-05-07T05:43:14;100667.75;;;18.79
67829;BMP280;54626;45.436;10.942;2023-05-07T05:45:41;100660.78;;;18.89
67829;BMP280;54626;45.436;10.942;2023-05-07T05:48:07;100660.19;;;19.00
67829;BMP280;54626;45.436;10.942;2023-05-07T05:50:34;100668.50;;;19.19
67829;BMP280;54626;45.436;10.942;2023-05-07T05:53:04;100664.47;;;19.31
67829;BMP280;54626;45.436;10.942;2023-05-07T05:55:30;100667.81;;;19.39
67829;BMP280;54626;45.436;10.942;2023-05-07T05:58:00;100670.56;;;19.48
67829;BMP280;54626;45.436;10.942;2023-05-07T06:00:29;100674.66;;;19.57
67829;BMP280;54626;45.436;10.942;2023-05-07T06:02:56;100667.59;;;19.77
67829;BMP280;54626;45.436;10.942;2023-05-07T06:05:23;100669.59;;;19.86
67829;BMP280;54626;45.436;10.942;2023-05-07T06:07:50;100670.13;;;19.94
67829;BMP280;54626;45.436;10.942;2023-05-07T06:10:19;100669.44;;;20.04
67829;BMP280;54626;45.436;10.942;2023-05-07T06:12:45;100671.72;;;20.17
67829;BMP280;54626;45.436;10.942;2023-05-07T06:15:12;100671.31;;;20.11
67829;BMP280;54626;45.436;10.942;2023-05-07T06:17:48;100665.13;;;20.24
67829;BMP280;54626;45.436;10.942;2023-05-07T06:20:17;100682.13;;;20.47
67829;BMP280;54626;45.436;10.942;2023-05-07T06:22:44;100675.63;;;20.45
67829;BMP280;54626;45.436;10.942;2023-05-07T06:25:11;100675.19;;;20.59
67829;BMP280;54626;45.436;10.942;2023-05-07T06:27:40;100665.31;;;21.04
67829;BMP280;54626;45.436;10.942;2023-05-07T06:30:07;100675.75;;;21.24
67829;BMP280;54626;45.436;10.942;2023-05-07T06:32:36;100668.75;;;21.48
67829;BMP280;54626;45.436;10.942;2023-05-07T06:35:05;100672.78;;;21.57
67829;BMP280;54626;45.436;10.942;2023-05-07T06:37:32;100672.34;;;21.73
67829;BMP280;54626;45.436;10.942;2023-05-07T06:39:58;100668.13;;;21.50
67829;BMP280;54626;45.436;10.942;2023-05-07T06:42:25;100672.09;;;21.11
67829;BMP280;54626;45.436;10.942;2023-05-07T06:44:53;100678.44;;;21.22
67829;BMP280;54626;45.436;10.942;2023-05-07T06:47:19;100677.53;;;21.43
67829;BMP280;54626;45.436;10.942;2023-05-07T06:49:46;100685.38;;;21.67
67829;BMP280;54626;45.436;10.942;2023-05-07T06:52:12;100684.50;;;21.65
67829;BMP280;54626;45.436;10.942;2023-05-07T06:54:39;100673.22;;;21.76
67829;BMP280;54626;45.436;10.942;2023-05-07T06:57:05;100669.59;;;21.98
67829;BMP280;54626;45.436;10.942;2023-05-07T06:59:32;100681.88;;;21.91
67829;BMP280;54626;45.436;10.942;2023-05-07T07:01:59;100681.88;;;21.91
67829;BMP280;54626;45.436;10.942;2023-05-07T07:04:25;100678.44;;;21.93
67829;BMP280;54626;45.436;10.942;2023-05-07T07:06:53;100676.00;;;21.87
67829;BMP280;54626;45.436;10.942;2023-05-07T07:09:23;100669.59;;;21.98
67829;BMP280;54626;45.436;10.942;2023-05-07T07:11:50;100682.72;;;21.94
67829;BMP280;54626;45.436;10.942;2023-05-07T07:14:16;100682.50;;;22.15
67829;BMP280;54626;45.436;10.942;2023-05-07T07:16:43;100682.66;;;22.05
67829;BMP280;54626;45.436;10.942;2023-05-07T07:19:09;100680.94;;;22.12
67829;BMP280;54626;45.436;10.942;2023-05-07T07:21:35;100680.00;;;21.96
67829;BMP280;54626;45.436;10.942;2023-05-07T07:24:02;100677.91;;;22.32
67829;BMP280;54626;45.436;10.942;2023-05-07T07:26:29;100675.28;;;22.75
67829;BMP280;54626;45.436;10.942;2023-05-07T07:28:55;100671.28;;;23.18
67829;BMP280;54626;45.436;10.942;2023-05-07T07:31:22;100677.00;;;23.60
67829;BMP280;54626;45.436;10.942;2023-05-07T07:33:48;100667.81;;;23.06
67829;BMP280;54626;45.436;10.942;2023-05-07T07:36:18;100666.19;;;23.14
67829;BMP280;54626;45.436;10.942;2023-05-07T07:38:45;100673.97;;;22.89
67829;BMP280;54626;45.436;10.942;2023-05-07T07:41:13;100670.75;;;23.08
67829;BMP280;54626;45.436;10.942;2023-05-07T07:43:40;100664.59;;;23.11
67829;BMP280;54626;45.436;10.942;2023-05-07T07:46:06;100661.03;;;23.37
67829;BMP280;54626;45.436;10.942;2023-05-07T07:48:33;100669.34;;;23.62
67829;BMP280;54626;45.436;10.942;2023-05-07T07:50:59;100664.03;;;23.97
67829;BMP280;54626;45.436;10.942;2023-05-07T07:53:26;100681.34;;;23.89
67829;BMP280;54626;45.436;10.942;2023-05-07T07:55:52;100685.59;;;23.48
67829;BMP280;54626;45.436;10.942;2023-05-07T07:58:24;100684.13;;;23.61
67829;BMP280;54626;45.436;10.942;2023-05-07T08:00:51;100688.53;;;23.24
67829;BMP280;54626;45.436;10.942;2023-05-07T08:03:17;100690.72;;;23.38
67829;BMP280;54626;45.436;10.942;2023-05-07T08:05:45;100683.06;;;23.68
67829;BMP280;54626;45.436;10.942;2023-05-07T08:08:12;100685.06;;;23.65
67829;BMP280;54626;45.436;10.942;2023-05-07T08:10:38;100687.41;;;23.84
67829;BMP280;54626;45.436;10.942;2023-05-07T08:13:05;100689.13;;;23.76
67829;BMP280;54626;45.436;10.942;2023-05-07T08:15:32;100684.84;;;23.61
67829;BMP280;54626;45.436;10.942;2023-05-07T08:17:58;100692.53;;;23.87
67829;BMP280;54626;45.436;10.942;2023-05-07T08:20:26;100693.88;;;24.00
67829;BMP280;54626;45.436;10.942;2023-05-07T08:22:53;100698.38;;;24.49
67829;BMP280;54626;45.436;10.942;2023-05-07T08:25:19;100701.59;;;23.57
67829;BMP280;54626;45.436;10.942;2023-05-07T08:27:46;100698.59;;;23.27
67829;BMP280;54626;45.436;10.942;2023-05-07T08:30:13;100703.78;;;23.59
67829;BMP280;54626;45.436;10.942;2023-05-07T08:32:39;100700.47;;;23.49
67829;BMP280;54626;45.436;10.942;2023-05-07T08:35:06;100699.44;;;23.29
67829;BMP280;54626;45.436;10.942;2023-05-07T08:37:32;100702.44;;;23.60
67829;BMP280;54626;45.436;10.942;2023-05-07T08:39:59;100697.19;;;23.68
67829;BMP280;54626;45.436;10.942;2023-05-07T08:42:28;100706.03;;;23.89
67829;BMP280;54626;45.436;10.942;2023-05-07T08:44:57;100704.97;;;23.96
67829;BMP280;54626;45.436;10.942;2023-05-07T08:47:26;100701.38;;;23.67
67829;BMP280;54626;45.436;10.942;2023-05-07T08:49:55;100700.53;;;23.78
67829;BMP280;54626;45.436;10.942;2023-05-07T08:52:22;100701.13;;;24.18
67829;BMP280;54626;45.436;10.942;2023-05-07T08:54:48;100694.03;;;24.33
67829;BMP280;54626;45.436;10.942;2023-05-07T08:57:15;100697.16;;;24.23
67829;BMP280;54626;45.436;10.942;2023-05-07T08:59:41;100699.22;;;24.23
67829;BMP280;54626;45.436;10.942;2023-05-07T09:02:09;100700.91;;;24.58
67829;BMP280;54626;45.436;10.942;2023-05-07T09:04:36;100695.63;;;24.66
67829;BMP280;54626;45.436;10.942;2023-05-07T09:07:02;100695.19;;;24.87
67829;BMP280;54626;45.436;10.942;2023-05-07T09:09:34;100696.75;;;24.75
67829;BMP280;54626;45.436;10.942;2023-05-07T09:12:01;100687.69;;;25.24
67829;BMP280;54626;45.436;10.942;2023-05-07T09:14:28;100685.50;;;25.90
67829;BMP280;54626;45.436;10.942;2023-05-07T09:16:54;100695.13;;;26.18
67829;BMP280;54626;45.436;10.942;2023-05-07T09:19:24;100690.94;;;26.19
67829;BMP280;54626;45.436;10.942;2023-05-07T09:22:01;100680.31;;;26.02
67829;BMP280;54626;45.436;10.942;2023-05-07T09:24:28;100683.94;;;26.39
67829;BMP280;54626;45.436;10.942;2023-05-07T09:27:00;100677.00;;;26.44
67829;BMP280;54626;45.436;10.942;2023-05-07T09:29:28;100677.28;;;26.69
67829;BMP280;54626;45.436;10.942;2023-05-07T09:32:03;100683.66;;;26.50
67829;BMP280;54626;45.436;10.942;2023-05-07T09:34:29;100683.78;;;26.18
67829;BMP280;54626;45.436;10.942;2023-05-07T09:36:59;100690.28;;;25.86
67829;BMP280;54626;45.436;10.942;2023-05-07T09:39:26;100681.31;;;25.91
67829;BMP280;54626;45.436;10.942;2023-05-07T09:42:04;100680.88;;;25.46
67829;BMP280;54626;45.436;10.942;2023-05-07T09:44:32;100685.97;;;25.50
67829;BMP280;54626;45.436;10.942;2023-05-07T09:47:04;100684.31;;;25.45
67829;BMP280;54626;45.436;10.942;2023-05-07T09:49:34;100682.81;;;25.59
67829;BMP280;54626;45.436;10.942;2023-05-07T09:52:04;100691.84;;;25.88
67829;BMP280;54626;45.436;10.942;2023-05-07T09:54:33;100692.88;;;25.97
67829;BMP280;54626;45.436;10.942;2023-05-07T09:57:01;100678.28;;;26.22
67829;BMP280;54626;45.436;10.942;2023-05-07T09:59:32;100687.59;;;26.24
67829;BMP280;54626;45.436;10.942;2023-05-07T10:02:00;100686.97;;;25.91
67829;BMP280;54626;45.436;10.942;2023-05-07T10:04:31;100682.81;;;26.11
67829;BMP280;54626;45.436;10.942;2023-05-07T10:06:58;100683.44;;;26.44
67829;BMP280;54626;45.436;10.942;2023-05-07T10:09:26;100680.84;;;26.33
67829;BMP280;54626;45.436;10.942;2023-05-07T10:11:53;100673.41;;;26.61
67829;BMP280;54626;45.436;10.942;2023-05-07T10:14:21;100669.19;;;26.81
67829;BMP280;54626;45.436;10.942;2023-05-07T10:16:48;100673.78;;;26.90
67829;BMP280;54626;45.436;10.942;2023-05-07T10:19:15;100667.06;;;26.82
67829;BMP280;54626;45.436;10.942;2023-05-07T10:21:51;100671.44;;;26.85
67829;BMP280;54626;45.436;10.942;2023-05-07T10:24:26;100664.38;;;27.05
67829;BMP280;54626;45.436;10.942;2023-05-07T10:26:55;100660.97;;;26.70
67829;BMP280;54626;45.436;10.942;2023-05-07T10:32:39;100658.72;;;26.66
67829;BMP280;54626;45.436;10.942;2023-05-07T10:35:11;100660.88;;;27.06
67829;BMP280;54626;45.436;10.942;2023-05-07T10:37:40;100659.66;;;27.13
67829;BMP280;54626;45.436;10.942;2023-05-07T10:40:08;100661.44;;;27.22
67829;BMP280;54626;45.436;10.942;2023-05-07T10:42:36;100655.72;;;26.62
67829;BMP280;54626;45.436;10.942;2023-05-07T10:45:13;100657.53;;;27.12
67829;BMP280;54626;45.436;10.942;2023-05-07T10:48:12;100665.09;;;26.86
67829;BMP280;54626;45.436;10.942;2023-05-07T10:50:45;100661.81;;;26.93
67829;BMP280;54626;45.436;10.942;2023-05-07T10:55:50;100656.66;;;26.69
67829;BMP280;54626;45.436;10.942;2023-05-07T10:58:24;100658.28;;;26.54
67829;BMP280;54626;45.436;10.942;2023-05-07T11:03:25;100650.09;;;26.64
67829;BMP280;54626;45.436;10.942;2023-05-07T11:06:15;100646.09;;;26.90
67829;BMP280;54626;45.436;10.942;2023-05-07T11:08:57;100637.44;;;27.27
67829;BMP280;54626;45.436;10.942;2023-05-07T11:11:49;100635.25;;;27.26
67829;BMP280;54626;45.436;10.942;2023-05-07T11:17:08;100633.09;;;27.45
67829;BMP280;54626;45.436;10.942;2023-05-07T11:19:56;100633.19;;;27.71
67829;BMP280;54626;45.436;10.942;2023-05-07T11:25:02;100621.56;;;27.63
67829;BMP280;54626;45.436;10.942;2023-05-07T11:27:29;100623.59;;;27.82
67829;BMP280;54626;45.436;10.942;2023-05-07T11:29:56;100625.00;;;28.27
67829;BMP280;54626;45.436;10.942;2023-05-07T11:32:23;100621.84;;;28.40
67829;BMP280;54626;45.436;10.942;2023-05-07T11:34:54;100616.06;;;28.38
67829;BMP280;54626;45.436;10.942;2023-05-07T11:37:22;100619.44;;;27.84
67829;BMP280;54626;45.436;10.942;2023-05-07T11:39:49;100612.91;;;27.59
67829;BMP280;54626;45.436;10.942;2023-05-07T11:42:28;100613.50;;;28.23
67829;BMP280;54626;45.436;10.942;2023-05-07T11:44:55;100617.88;;;28.51
67829;BMP280;54626;45.436;10.942;2023-05-07T11:47:22;100615.44;;;28.92
67829;BMP280;54626;45.436;10.942;2023-05-07T11:49:50;100613.56;;;28.50
67829;BMP280;54626;45.436;10.942;2023-05-07T11:52:19;100613.53;;;29.01
67829;BMP280;54626;45.436;10.942;2023-05-07T11:57:16;100611.50;;;29.34
67829;BMP280;54626;45.436;10.942;2023-05-07T11:59:42;100609.06;;;29.52
67829;BMP280;54626;45.436;10.942;2023-05-07T12:02:15;100617.06;;;29.58
67829;BMP280;54626;45.436;10.942;2023-05-07T12:04:42;100612.69;;;29.86
67829;BMP280;54626;45.436;10.942;2023-05-07T12:07:12;100606.59;;;29.10
67829;BMP280;54626;45.436;10.942;2023-05-07T12:09:42;100609.66;;;29.18
67829;BMP280;54626;45.436;10.942;2023-05-07T12:12:09;100617.69;;;29.54
67829;BMP280;54626;45.436;10.942;2023-05-07T12:14:39;100620.84;;;29.37
67829;BMP280;54626;45.436;10.942;2023-05-07T12:17:10;100615.91;;;29.39
67829;BMP280;54626;45.436;10.942;2023-05-07T12:19:38;100622.06;;;29.28
67829;BMP280;54626;45.436;10.942;2023-05-07T12:22:06;100622.41;;;29.73
67829;BMP280;54626;45.436;10.942;2023-05-07T12:24:50;100615.88;;;29.37
67829;BMP280;54626;45.436;10.942;2023-05-07T12:27:24;100616.72;;;29.75
67829;BMP280;54626;45.436;10.942;2023-05-07T12:29:50;100615.88;;;29.68
67829;BMP280;54626;45.436;10.942;2023-05-07T12:32:20;100617.06;;;29.58
67829;BMP280;54626;45.436;10.942;2023-05-07T12:34:50;100608.75;;;29.68
67829;BMP280;54626;45.436;10.942;2023-05-07T12:37:23;100611.66;;;29.40
67829;BMP280;54626;45.436;10.942;2023-05-07T12:40:06;100602.53;;;30.10
67829;BMP280;54626;45.436;10.942;2023-05-07T12:42:35;100603.13;;;30.40
67829;BMP280;54626;45.436;10.942;2023-05-07T12:45:15;100604.94;;;30.23
67829;BMP280;54626;45.436;10.942;2023-05-07T12:47:45;100604.19;;;29.88
67829;BMP280;54626;45.436;10.942;2023-05-07T12:50:15;100594.25;;;29.91
67829;BMP280;54626;45.436;10.942;2023-05-07T12:52:47;100599.41;;;29.65
67829;BMP280;54626;45.436;10.942;2023-05-07T12:55:14;100590.56;;;29.53
67829;BMP280;54626;45.436;10.942;2023-05-07T12:57:45;100586.91;;;29.49
67829;BMP280;54626;45.436;10.942;2023-05-07T13:00:12;100600.09;;;29.34
67829;BMP280;54626;45.436;10.942;2023-05-07T13:02:43;100593.78;;;29.69
67829;BMP280;54626;45.436;10.942;2023-05-07T13:05:13;100582.19;;;29.61
67829;BMP280;54626;45.436;10.942;2023-05-07T13:07:40;100592.75;;;29.55
67829;BMP280;54626;45.436;10.942;2023-05-07T13:10:08;100581.28;;;29.84
67829;BMP280;54626;45.436;10.942;2023-05-07T13:12:35;100585.63;;;29.56
67829;BMP280;54626;45.436;10.942;2023-05-07T13:15:02;100577.13;;;29.91
67829;BMP280;54626;45.436;10.942;2023-05-07T13:17:28;100579.53;;;30.02
67829;BMP280;54626;45.436;10.942;2023-05-07T13:19:57;100574.41;;;29.64
67829;BMP280;54626;45.436;10.942;2023-05-07T13:22:25;100580.91;;;29.35
67829;BMP280;54626;45.436;10.942;2023-05-07T13:24:52;100569.56;;;29.70
67829;BMP280;54626;45.436;10.942;2023-05-07T13:27:18;100562.41;;;30.02
67829;BMP280;54626;45.436;10.942;2023-05-07T13:29:46;100565.84;;;30.32
67829;BMP280;54626;45.436;10.942;2023-05-07T13:32:12;100558.50;;;30.58
67829;BMP280;54626;45.436;10.942;2023-05-07T13:34:41;100556.78;;;30.06
67829;BMP280;54626;45.436;10.942;2023-05-07T13:37:09;100550.59;;;30.57
67829;BMP280;54626;45.436;10.942;2023-05-07T13:39:37;100558.13;;;30.77
67829;BMP280;54626;45.436;10.942;2023-05-07T13:42:03;100547.94;;;30.66
67829;BMP280;54626;45.436;10.942;2023-05-07T13:44:30;100556.84;;;30.86
67829;BMP280;54626;45.436;10.942;2023-05-07T13:46:56;100552.84;;;30.62
67829;BMP280;54626;45.436;10.942;2023-05-07T13:49:23;100548.00;;;30.31
67829;BMP280;54626;45.436;10.942;2023-05-07T13:51:50;100552.84;;;30.62
67829;BMP280;54626;45.436;10.942;2023-05-07T13:54:16;100539.19;;;30.98
67829;BMP280;54626;45.436;10.942;2023-05-07T13:56:43;100551.47;;;31.08
67829;BMP280;54626;45.436;10.942;2023-05-07T13:59:09;100553.38;;;30.92
67829;BMP280;54626;45.436;10.942;2023-05-07T14:01:36;100540.50;;;30.91
67829;BMP280;54626;45.436;10.942;2023-05-07T14:04:02;100539.31;;;31.07
67829;BMP280;54626;45.436;10.942;2023-05-07T14:06:29;100532.09;;;31.03